sensor_id;sensor_type;location;lat;lon;timestamp;P1;durP1;ratioP1;P2;durP2;ratioP2
20476;SDS011;10397;50.948;11.092;2024-03-23T00:52:38;3.00;;;2.33;;
20476;SDS011;10397;50.948;11.092;2024-03-23T00:55:09;2.05;;;1.20;;
20476;SDS011;10397;50.948;11.092;2024-03-23T00:57:40;2.45;;;1.90;;
20476;SDS011;10397;50.948;11.092;2024-03-23T01:00:12;2.47;;;1.90;;
20476;SDS011;10397;50.948;11.092;2024-03-23T01:02:43;3.47;;;1.87;;
20476;SDS011;10397;50.948;11.092;2024-03-23T01:05:15;3.02;;;1.80;;
20476;SDS011;10397;50.948;11.092;2024-03-23T01:07:46;2.57;;;1.27;;
20476;SDS011;10397;50.948;11.092;2024-03-23T01:10:17;2.45;;;2.15;;
20476;SDS011;10397;50.948;11.092;2024-03-23T01:12:48;2.90;;;2.10;;
20476;SDS011;10397;50.948;11.092;2024-03-23T01:15:19;5.63;;;2.17;;
20476;SDS011;10397;50.948;11.092;2024-03-23T01:17:51;1.57;;;1.20;;
20476;SDS011;10397;50.948;11.092;2024-03-23T01:20:22;4.77;;;2.67;;
20476;SDS011;10397;50.948;11.092;2024-03-23T01:22:53;4.97;;;2.85;;
20476;SDS011;10397;50.948;11.092;2024-03-23T01:25:25;3.30;;;2.60;;
20476;SDS011;10397;50.948;11.092;2024-03-23T01:27:56;3.50;;;1.80;;
20476;SDS011;10397;50.948;11.092;2024-03-23T01:30:28;3.58;;;2.25;;
20476;SDS011;10397;50.948;11.092;2024-03-23T01:32:59;2.70;;;2.17;;
20476;SDS011;10397;50.948;11.092;2024-03-23T01:35:30;2.60;;;1.65;;
20476;SDS011;10397;50.948;11.092;2024-03-23T01:38:01;5.00;;;2.90;;
20476;SDS011;10397;50.948;11.092;2024-03-23T01:40:33;3.72;;;2.45;;
20476;SDS011;10397;50.948;11.092;2024-03-23T01:43:05;4.42;;;2.25;;
20476;SDS011;10397;50.948;11.092;2024-03-23T01:45:35;3.67;;;2.20;;
20476;SDS011;10397;50.948;11.092;2024-03-23T01:48:06;6.80;;;3.52;;
20476;SDS011;10397;50.948;11.092;2024-03-23T01:50:38;2.95;;;1.75;;
20476;SDS011;10397;50.948;11.092;2024-03-23T01:53:09;3.65;;;2.50;;
20476;SDS011;10397;50.948;11.092;2024-03-23T01:55:40;3.67;;;1.92;;
20476;SDS011;10397;50.948;11.092;2024-03-23T01:58:11;2.26;;;1.58;;
20476;SDS011;10397;50.948;11.092;2024-03-23T02:00:43;2.85;;;2.20;;
20476;SDS011;10397;50.948;11.092;2024-03-23T02:03:24;2.12;;;1.55;;
20476;SDS011;10397;50.948;11.092;2024-03-23T02:05:54;4.43;;;2.10;;
20476;SDS011;10397;50.948;11.092;2024-03-23T02:08:25;3.37;;;2.40;;
20476;SDS011;10397;50.948;11.092;2024-03-23T02:10:57;3.67;;;2.30;;
20476;SDS011;10397;50.948;11.092;2024-03-23T02:13:28;4.07;;;2.43;;
20476;SDS011;10397;50.948;11.092;2024-03-23T02:15:59;3.07;;;2.13;;
20476;SDS011;10397;50.948;11.092;2024-03-23T02:18:30;4.40;;;2.63;;
20476;SDS011;10397;50.948;11.092;2024-03-23T02:21:01;5.40;;;3.35;;
20476;SDS011;10397;50.948;11.092;2024-03-23T02:23:32;3.67;;;2.77;;
20476;SDS011;10397;50.948;11.092;2024-03-23T02:26:03;5.05;;;2.08;;
20476;SDS011;10397;50.948;11.092;2024-03-23T02:28:35;2.55;;;1.60;;
20476;SDS011;10397;50.948;11.092;2024-03-23T02:31:06;3.67;;;3.00;;
20476;SDS011;10397;50.948;11.092;2024-03-23T02:33:38;4.95;;;2.60;;
20476;SDS011;10397;50.948;11.092;2024-03-23T02:36:09;2.70;;;1.60;;
20476;SDS011;10397;50.948;11.092;2024-03-23T02:38:41;4.30;;;3.12;;
20476;SDS011;10397;50.948;11.092;2024-03-23T02:41:13;3.62;;;2.52;;
20476;SDS011;10397;50.948;11.092;2024-03-23T02:43:45;4.22;;;2.33;;
20476;SDS011;10397;50.948;11.092;2024-03-23T02:46:17;4.90;;;2.12;;
20476;SDS011;10397;50.948;11.092;2024-03-23T02:48:50;4.28;;;3.72;;
20476;SDS011;10397;50.948;11.092;2024-03-23T02:51:22;5.00;;;2.80;;
20476;SDS011;10397;50.948;11.092;2024-03-23T02:53:53;5.00;;;2.50;;
20476;SDS011;10397;50.948;11.092;2024-03-23T02:56:24;3.97;;;2.57;;
20476;SDS011;10397;50.948;11.092;2024-03-23T02:58:56;4.27;;;1.70;;
20476;SDS011;10397;50.948;11.092;2024-03-23T03:01:27;5.00;;;2.00;;
20476;SDS011;10397;50.948;11.092;2024-03-23T03:03:59;4.17;;;3.60;;
20476;SDS011;10397;50.948;11.092;2024-03-23T03:06:31;5.25;;;2.72;;
20476;SDS011;10397;50.948;11.092;2024-03-23T03:09:00;3.02;;;2.27;;
20476;SDS011;10397;50.948;11.092;2024-03-23T03:11:32;3.22;;;2.08;;
20476;SDS011;10397;50.948;11.092;2024-03-23T03:14:04;3.08;;;1.82;;
20476;SDS011;10397;50.948;11.092;2024-03-23T03:16:35;3.27;;;2.08;;
20476;SDS011;10397;50.948;11.092;2024-03-23T03:19:07;5.15;;;2.55;;
20476;SDS011;10397;50.948;11.092;2024-03-23T03:21:38;5.85;;;2.98;;
20476;SDS011;10397;50.948;11.092;2024-03-23T03:24:10;3.22;;;2.17;;
20476;SDS011;10397;50.948;11.092;2024-03-23T03:26:41;8.00;;;2.72;;
20476;SDS011;10397;50.948;11.092;2024-03-23T03:29:13;2.95;;;1.52;;
20476;SDS011;10397;50.948;11.092;2024-03-23T03:31:44;5.35;;;3.37;;
20476;SDS011;10397;50.948;11.092;2024-03-23T03:34:16;6.22;;;3.17;;
20476;SDS011;10397;50.948;11.092;2024-03-23T03:36:47;4.03;;;2.55;;
20476;SDS011;10397;50.948;11.092;2024-03-23T03:39:18;3.60;;;2.77;;
20476;SDS011;10397;50.948;11.092;2024-03-23T03:41:49;2.92;;;1.98;;
20476;SDS011;10397;50.948;11.092;2024-03-23T03:44:20;2.23;;;1.80;;
20476;SDS011;10397;50.948;11.092;2024-03-23T03:46:51;6.10;;;2.63;;
20476;SDS011;10397;50.948;11.092;2024-03-23T03:49:22;2.87;;;2.53;;
20476;SDS011;10397;50.948;11.092;2024-03-23T03:51:53;4.73;;;2.87;;
20476;SDS011;10397;50.948;11.092;2024-03-23T03:54:25;3.27;;;1.72;;
20476;SDS011;10397;50.948;11.092;2024-03-23T03:56:56;4.33;;;2.98;;
20476;SDS011;10397;50.948;11.092;2024-03-23T03:59:29;4.20;;;2.08;;
20476;SDS011;10397;50.948;11.092;2024-03-23T04:01:59;2.33;;;1.35;;
20476;SDS011;10397;50.948;11.092;2024-03-23T04:04:30;4.70;;;2.35;;
20476;SDS011;10397;50.948;11.092;2024-03-23T04:07:02;4.03;;;2.80;;
20476;SDS011;10397;50.948;11.092;2024-03-23T04:09:32;3.03;;;2.03;;
20476;SDS011;10397;50.948;11.092;2024-03-23T04:12:04;5.17;;;3.30;;
20476;SDS011;10397;50.948;11.092;2024-03-23T04:14:35;4.00;;;2.00;;
20476;SDS011;10397;50.948;11.092;2024-03-23T04:17:07;2.35;;;1.80;;
20476;SDS011;10397;50.948;11.092;2024-03-23T04:19:38;5.40;;;3.10;;
20476;SDS011;10397;50.948;11.092;2024-03-23T04:22:10;5.12;;;3.33;;
20476;SDS011;10397;50.948;11.092;2024-03-23T04:24:42;2.40;;;1.30;;
20476;SDS011;10397;50.948;11.092;2024-03-23T04:27:13;4.97;;;2.72;;
20476;SDS011;10397;50.948;11.092;2024-03-23T04:29:52;2.80;;;1.42;;
20476;SDS011;10397;50.948;11.092;2024-03-23T04:32:19;4.37;;;3.07;;
20476;SDS011;10397;50.948;11.092;2024-03-23T04:34:50;4.70;;;2.53;;
20476;SDS011;10397;50.948;11.092;2024-03-23T04:37:22;3.58;;;2.42;;
20476;SDS011;10397;50.948;11.092;2024-03-23T04:39:53;4.22;;;3.08;;
20476;SDS011;10397;50.948;11.092;2024-03-23T04:42:25;3.45;;;2.10;;
20476;SDS011;10397;50.948;11.092;2024-03-23T04:44:57;6.17;;;3.17;;
20476;SDS011;10397;50.948;11.092;2024-03-23T04:47:28;3.15;;;2.75;;
20476;SDS011;10397;50.948;11.092;2024-03-23T04:50:00;3.47;;;2.77;;
20476;SDS011;10397;50.948;11.092;2024-03-23T04:52:31;4.92;;;2.87;;
20476;SDS011;10397;50.948;11.092;2024-03-23T04:55:03;6.37;;;2.90;;
20476;SDS011;10397;50.948;11.092;2024-03-23T04:57:34;3.25;;;1.80;;
20476;SDS011;10397;50.948;11.092;2024-03-23T05:00:06;3.72;;;2.22;;
20476;SDS011;10397;50.948;11.092;2024-03-23T05:02:39;6.43;;;2.50;;
20476;SDS011;10397;50.948;11.092;2024-03-23T05:05:11;5.15;;;3.20;;
20476;SDS011;10397;50.948;11.092;2024-03-23T05:07:41;4.53;;;2.67;;
20476;SDS011;10397;50.948;11.092;2024-03-23T05:10:13;5.85;;;2.83;;
20476;SDS011;10397;50.948;11.092;2024-03-23T05:12:44;5.42;;;2.45;;
20476;SDS011;10397;50.948;11.092;2024-03-23T05:15:15;2.85;;;1.77;;
20476;SDS011;10397;50.948;11.092;2024-03-23T05:17:46;2.37;;;2.17;;
20476;SDS011;10397;50.948;11.092;2024-03-23T05:20:18;5.00;;;3.13;;
20476;SDS011;10397;50.948;11.092;2024-03-23T05:22:49;3.52;;;2.05;;
20476;SDS011;10397;50.948;11.092;2024-03-23T05:25:20;2.70;;;1.90;;
20476;SDS011;10397;50.948;11.092;2024-03-23T05:27:51;3.22;;;1.95;;
20476;SDS011;10397;50.948;11.092;2024-03-23T05:30:23;5.12;;;2.02;;
20476;SDS011;10397;50.948;11.092;2024-03-23T05:32:55;2.98;;;2.37;;
20476;SDS011;10397;50.948;11.092;2024-03-23T05:35:27;2.22;;;1.55;;
20476;SDS011;10397;50.948;11.092;2024-03-23T05:37:58;1.40;;;1.05;;
20476;SDS011;10397;50.948;11.092;2024-03-23T05:40:29;2.58;;;1.40;;
20476;SDS011;10397;50.948;11.092;2024-03-23T05:43:01;2.70;;;1.67;;
20476;SDS011;10397;50.948;11.092;2024-03-23T05:45:32;2.17;;;1.52;;
20476;SDS011;10397;50.948;11.092;2024-03-23T05:48:04;2.83;;;2.20;;
20476;SDS011;10397;50.948;11.092;2024-03-23T05:50:34;3.30;;;1.93;;
20476;SDS011;10397;50.948;11.092;2024-03-23T05:53:05;3.47;;;2.13;;
20476;SDS011;10397;50.948;11.092;2024-03-23T05:55:37;3.05;;;2.30;;
20476;SDS011;10397;50.948;11.092;2024-03-23T05:58:08;10.13;;;1.87;;
20476;SDS011;10397;50.948;11.092;2024-03-23T06:00:39;3.22;;;2.27;;
20476;SDS011;10397;50.948;11.092;2024-03-23T06:03:10;2.73;;;2.43;;
20476;SDS011;10397;50.948;11.092;2024-03-23T06:05:42;2.33;;;1.62;;
20476;SDS011;10397;50.948;11.092;2024-03-23T06:08:13;2.72;;;2.12;;
20476;SDS011;10397;50.948;11.092;2024-03-23T06:10:48;3.05;;;2.37;;
20476;SDS011;10397;50.948;11.092;2024-03-23T06:13:16;6.00;;;3.37;;
20476;SDS011;10397;50.948;11.092;2024-03-23T06:15:46;2.30;;;1.87;;
20476;SDS011;10397;50.948;11.092;2024-03-23T06:18:18;3.53;;;2.43;;
20476;SDS011;10397;50.948;11.092;2024-03-23T06:20:49;2.03;;;1.77;;
20476;SDS011;10397;50.948;11.092;2024-03-23T06:23:20;4.90;;;2.02;;
20476;SDS011;10397;50.948;11.092;2024-03-23T06:25:51;3.02;;;1.85;;
20476;SDS011;10397;50.948;11.092;2024-03-23T06:28:22;2.40;;;1.73;;
20476;SDS011;10397;50.948;11.092;2024-03-23T06:30:54;2.00;;;1.10;;
20476;SDS011;10397;50.948;11.092;2024-03-23T06:33:25;1.67;;;1.57;;
20476;SDS011;10397;50.948;11.092;2024-03-23T06:35:56;1.27;;;0.65;;
20476;SDS011;10397;50.948;11.092;2024-03-23T06:38:27;0.35;;;0.30;;
20476;SDS011;10397;50.948;11.092;2024-03-23T06:40:58;1.55;;;1.00;;
20476;SDS011;10397;50.948;11.092;2024-03-23T06:43:29;2.90;;;0.70;;
20476;SDS011;10397;50.948;11.092;2024-03-23T06:46:01;0.90;;;0.20;;
20476;SDS011;10397;50.948;11.092;2024-03-23T06:48:31;0.00;;;0.00;;
20476;SDS011;10397;50.948;11.092;2024-03-23T06:51:03;0.70;;;0.37;;
20476;SDS011;10397;50.948;11.092;2024-03-23T06:53:34;0.70;;;0.30;;
20476;SDS011;10397;50.948;11.092;2024-03-23T06:56:06;0.35;;;0.13;;
20476;SDS011;10397;50.948;11.092;2024-03-23T06:58:37;1.30;;;0.68;;
20476;SDS011;10397;50.948;11.092;2024-03-23T07:01:09;1.07;;;0.30;;
20476;SDS011;10397;50.948;11.092;2024-03-23T07:03:41;1.90;;;0.40;;
20476;SDS011;10397;50.948;11.092;2024-03-23T07:06:12;0.30;;;0.30;;
20476;SDS011;10397;50.948;11.092;2024-03-23T07:08:44;1.22;;;0.35;;
20476;SDS011;10397;50.948;11.092;2024-03-23T07:11:19;0.75;;;0.37;;
20476;SDS011;10397;50.948;11.092;2024-03-23T07:13:50;0.53;;;0.20;;
20476;SDS011;10397;50.948;11.092;2024-03-23T07:16:20;1.40;;;0.30;;
20476;SDS011;10397;50.948;11.092;2024-03-23T07:18:52;0.20;;;0.10;;
20476;SDS011;10397;50.948;11.092;2024-03-23T07:21:23;0.53;;;0.10;;
20476;SDS011;10397;50.948;11.092;2024-03-23T07:23:54;0.28;;;0.20;;
20476;SDS011;10397;50.948;11.092;2024-03-23T07:26:26;0.17;;;0.10;;
20476;SDS011;10397;50.948;11.092;2024-03-23T07:28:58;0.00;;;0.00;;
20476;SDS011;10397;50.948;11.092;2024-03-23T07:31:28;0.00;;;0.00;;
20476;SDS011;10397;50.948;11.092;2024-03-23T07:34:00;0.20;;;0.15;;
20476;SDS011;10397;50.948;11.092;2024-03-23T07:36:31;0.05;;;0.00;;
20476;SDS011;10397;50.948;11.092;2024-03-23T07:39:03;0.10;;;0.10;;
20476;SDS011;10397;50.948;11.092;2024-03-23T07:41:35;0.17;;;0.00;;
20476;SDS011;10397;50.948;11.092;2024-03-23T07:44:06;0.62;;;0.28;;
20476;SDS011;10397;50.948;11.092;2024-03-23T07:46:37;0.60;;;0.10;;
20476;SDS011;10397;50.948;11.092;2024-03-23T07:49:09;0.00;;;0.00;;
20476;SDS011;10397;50.948;11.092;2024-03-23T07:51:40;0.13;;;0.00;;
20476;SDS011;10397;50.948;11.092;2024-03-23T07:54:12;0.30;;;0.20;;
20476;SDS011;10397;50.948;11.092;2024-03-23T07:56:43;0.00;;;0.00;;
20476;SDS011;10397;50.948;11.092;2024-03-23T07:59:15;0.00;;;0.00;;
20476;SDS011;10397;50.948;11.092;2024-03-23T08:01:46;0.00;;;0.00;;
20476;SDS011;10397;50.948;11.092;2024-03-23T08:04:18;0.10;;;0.10;;
20476;SDS011;10397;50.948;11.092;2024-03-23T08:06:49;0.00;;;0.00;;
20476;SDS011;10397;50.948;11.092;2024-03-23T08:09:20;0.00;;;0.00;;
20476;SDS011;10397;50.948;11.092;2024-03-23T08:11:52;0.03;;;0.03;;
20476;SDS011;10397;50.948;11.092;2024-03-23T08:14:23;0.00;;;0.00;;
20476;SDS011;10397;50.948;11.092;2024-03-23T08:16:55;0.20;;;0.17;;
20476;SDS011;10397;50.948;11.092;2024-03-23T08:19:26;0.13;;;0.03;;
20476;SDS011;10397;50.948;11.092;2024-03-23T08:21:58;0.00;;;0.00;;
20476;SDS011;10397;50.948;11.092;2024-03-23T08:24:29;0.00;;;0.00;;
20476;SDS011;10397;50.948;11.092;2024-03-23T08:27:01;0.00;;;0.00;;
20476;SDS011;10397;50.948;11.092;2024-03-23T08:29:32;0.00;;;0.00;;
20476;SDS011;10397;50.948;11.092;2024-03-23T08:32:03;0.00;;;0.00;;
20476;SDS011;10397;50.948;11.092;2024-03-23T08:34:34;0.05;;;0.05;;
20476;SDS011;10397;50.948;11.092;2024-03-23T08:37:06;0.00;;;0.00;;
20476;SDS011;10397;50.948;11.092;2024-03-23T08:39:38;0.00;;;0.00;;
20476;SDS011;10397;50.948;11.092;2024-03-23T08:42:09;0.00;;;0.00;;
20476;SDS011;10397;50.948;11.092;2024-03-23T08:44:41;0.00;;;0.00;;
20476;SDS011;10397;50.948;11.092;2024-03-23T08:47:12;0.00;;;0.00;;
20476;SDS011;10397;50.948;11.092;2024-03-23T08:49:44;0.00;;;0.00;;
20476;SDS011;10397;50.948;11.092;2024-03-23T08:52:15;0.00;;;0.00;;
20476;SDS011;10397;50.948;11.092;2024-03-23T08:54:46;0.00;;;0.00;;
20476;SDS011;10397;50.948;11.092;2024-03-23T08:57:18;0.17;;;0.03;;
20476;SDS011;10397;50.948;11.092;2024-03-23T08:59:49;0.00;;;0.00;;
20476;SDS011;10397;50.948;11.092;2024-03-23T09:02:20;0.00;;;0.00;;
20476;SDS011;10397;50.948;11.092;2024-03-23T09:04:52;0.00;;;0.00;;
20476;SDS011;10397;50.948;11.092;2024-03-23T09:07:23;0.00;;;0.00;;
20476;SDS011;10397;50.948;11.092;2024-03-23T09:09:55;0.00;;;0.00;;
20476;SDS011;10397;50.948;11.092;2024-03-23T09:12:26;0.00;;;0.00;;
20476;SDS011;10397;50.948;11.092;2024-03-23T09:14:58;0.17;;;0.17;;
20476;SDS011;10397;50.948;11.092;2024-03-23T09:17:29;0.20;;;0.10;;
20476;SDS011;10397;50.948;11.092;2024-03-23T09:20:00;0.00;;;0.00;;
20476;SDS011;10397;50.948;11.092;2024-03-23T09:22:32;0.00;;;0.00;;
20476;SDS011;10397;50.948;11.092;2024-03-23T09:25:04;0.05;;;0.00;;
20476;SDS011;10397;50.948;11.092;2024-03-23T09:27:34;0.10;;;0.00;;
20476;SDS011;10397;50.948;11.092;2024-03-23T09:30:06;0.00;;;0.00;;
20476;SDS011;10397;50.948;11.092;2024-03-23T09:32:37;0.00;;;0.00;;
20476;SDS011;10397;50.948;11.092;2024-03-23T09:35:08;0.00;;;0.00;;
20476;SDS011;10397;50.948;11.092;2024-03-23T09:37:39;0.00;;;0.00;;
20476;SDS011;10397;50.948;11.092;2024-03-23T09:40:11;0.47;;;0.10;;
20476;SDS011;10397;50.948;11.092;2024-03-23T09:42:42;0.00;;;0.00;;
20476;SDS011;10397;50.948;11.092;2024-03-23T09:45:17;0.00;;;0.00;;
20476;SDS011;10397;50.948;11.092;2024-03-23T09:47:44;0.20;;;0.17;;
20476;SDS011;10397;50.948;11.092;2024-03-23T09:50:16;0.00;;;0.00;;
20476;SDS011;10397;50.948;11.092;2024-03-23T09:52:47;0.00;;;0.00;;
20476;SDS011;10397;50.948;11.092;2024-03-23T09:55:17;0.03;;;0.00;;
20476;SDS011;10397;50.948;11.092;2024-03-23T09:57:49;0.03;;;0.03;;
20476;SDS011;10397;50.948;11.092;2024-03-23T10:00:19;4.43;;;0.63;;
20476;SDS011;10397;50.948;11.092;2024-03-23T10:02:51;0.00;;;0.00;;
20476;SDS011;10397;50.948;11.092;2024-03-23T10:05:22;0.20;;;0.20;;
20476;SDS011;10397;50.948;11.092;2024-03-23T10:07:53;0.00;;;0.00;;
20476;SDS011;10397;50.948;11.092;2024-03-23T10:10:27;0.03;;;0.00;;
20476;SDS011;10397;50.948;11.092;2024-03-23T10:12:58;0.00;;;0.00;;
20476;SDS011;10397;50.948;11.092;2024-03-23T10:15:29;0.00;;;0.00;;
20476;SDS011;10397;50.948;11.092;2024-03-23T10:18:17;0.00;;;0.00;;
20476;SDS011;10397;50.948;11.092;2024-03-23T10:20:34;0.00;;;0.00;;
20476;SDS011;10397;50.948;11.092;2024-03-23T10:23:05;0.28;;;0.20;;
20476;SDS011;10397;50.948;11.092;2024-03-23T10:25:36;0.00;;;0.00;;
20476;SDS011;10397;50.948;11.092;2024-03-23T10:28:07;0.00;;;0.00;;
20476;SDS011;10397;50.948;11.092;2024-03-23T10:30:39;0.00;;;0.00;;
20476;SDS011;10397;50.948;11.092;2024-03-23T10:33:10;0.10;;;0.10;;
20476;SDS011;10397;50.948;11.092;2024-03-23T10:35:43;4.08;;;0.85;;
20476;SDS011;10397;50.948;11.092;2024-03-23T10:38:14;0.10;;;0.10;;
20476;SDS011;10397;50.948;11.092;2024-03-23T10:40:45;0.00;;;0.00;;
20476;SDS011;10397;50.948;11.092;2024-03-23T10:43:17;0.25;;;0.10;;
20476;SDS011;10397;50.948;11.092;2024-03-23T10:45:49;0.10;;;0.00;;
20476;SDS011;10397;50.948;11.092;2024-03-23T10:48:19;0.20;;;0.15;;
20476;SDS011;10397;50.948;11.092;2024-03-23T10:50:50;0.10;;;0.10;;
20476;SDS011;10397;50.948;11.092;2024-03-23T10:53:22;0.20;;;0.13;;
20476;SDS011;10397;50.948;11.092;2024-03-23T10:55:53;0.17;;;0.17;;
20476;SDS011;10397;50.948;11.092;2024-03-23T10:58:28;0.30;;;0.20;;
20476;SDS011;10397;50.948;11.092;2024-03-23T11:01:03;2.67;;;0.37;;
20476;SDS011;10397;50.948;11.092;2024-03-23T11:03:35;0.30;;;0.10;;
20476;SDS011;10397;50.948;11.092;2024-03-23T11:06:05;0.10;;;0.00;;
20476;SDS011;10397;50.948;11.092;2024-03-23T11:08:39;0.20;;;0.20;;
20476;SDS011;10397;50.948;11.092;2024-03-23T11:13:43;0.55;;;0.33;;
20476;SDS011;10397;50.948;11.092;2024-03-23T11:16:15;0.35;;;0.10;;
20476;SDS011;10397;50.948;11.092;2024-03-23T11:22:07;0.57;;;0.30;;
20476;SDS011;10397;50.948;11.092;2024-03-23T11:24:38;0.37;;;0.37;;
20476;SDS011;10397;50.948;11.092;2024-03-23T11:27:15;3.02;;;0.00;;
20476;SDS011;10397;50.948;11.092;2024-03-23T11:29:46;0.93;;;0.20;;
20476;SDS011;10397;50.948;11.092;2024-03-23T11:32:17;0.08;;;0.08;;
20476;SDS011;10397;50.948;11.092;2024-03-23T11:34:49;0.55;;;0.28;;
20476;SDS011;10397;50.948;11.092;2024-03-23T11:37:20;0.20;;;0.20;;
20476;SDS011;10397;50.948;11.092;2024-03-23T11:39:52;0.45;;;0.30;;
20476;SDS011;10397;50.948;11.092;2024-03-23T11:42:24;0.35;;;0.25;;
20476;SDS011;10397;50.948;11.092;2024-03-23T11:44:55;0.45;;;0.33;;
20476;SDS011;10397;50.948;11.092;2024-03-23T11:47:27;0.57;;;0.23;;
20476;SDS011;10397;50.948;11.092;2024-03-23T11:49:59;0.72;;;0.70;;
20476;SDS011;10397;50.948;11.092;2024-03-23T11:52:31;1.47;;;0.65;;
20476;SDS011;10397;50.948;11.092;2024-03-23T11:55:05;0.82;;;0.50;;
20476;SDS011;10397;50.948;11.092;2024-03-23T11:57:36;1.03;;;0.33;;
20476;SDS011;10397;50.948;11.092;2024-03-23T12:00:22;4.58;;;0.15;;
20476;SDS011;10397;50.948;11.092;2024-03-23T12:02:53;0.60;;;0.20;;
20476;SDS011;10397;50.948;11.092;2024-03-23T12:05:25;0.30;;;0.20;;
20476;SDS011;10397;50.948;11.092;2024-03-23T12:07:55;0.10;;;0.10;;
20476;SDS011;10397;50.948;11.092;2024-03-23T12:10:25;1.20;;;0.50;;
20476;SDS011;10397;50.948;11.092;2024-03-23T12:13:00;1.02;;;0.10;;
20476;SDS011;10397;50.948;11.092;2024-03-23T12:15:30;0.00;;;0.00;;
20476;SDS011;10397;50.948;11.092;2024-03-23T12:18:07;0.40;;;0.10;;
20476;SDS011;10397;50.948;11.092;2024-03-23T12:20:40;0.23;;;0.10;;
20476;SDS011;10397;50.948;11.092;2024-03-23T12:23:11;0.55;;;0.28;;
20476;SDS011;10397;50.948;11.092;2024-03-23T12:25:42;1.70;;;0.20;;
20476;SDS011;10397;50.948;11.092;2024-03-23T12:28:14;1.10;;;0.40;;
20476;SDS011;10397;50.948;11.092;2024-03-23T12:30:45;0.82;;;0.20;;
20476;SDS011;10397;50.948;11.092;2024-03-23T12:33:17;0.10;;;0.00;;
20476;SDS011;10397;50.948;11.092;2024-03-23T12:35:48;1.05;;;0.40;;
20476;SDS011;10397;50.948;11.092;2024-03-23T12:38:18;0.47;;;0.13;;
20476;SDS011;10397;50.948;11.092;2024-03-23T12:40:50;0.53;;;0.23;;
20476;SDS011;10397;50.948;11.092;2024-03-23T12:43:21;0.62;;;0.23;;
20476;SDS011;10397;50.948;11.092;2024-03-23T12:45:53;0.30;;;0.20;;
20476;SDS011;10397;50.948;11.092;2024-03-23T12:48:24;0.75;;;0.30;;
20476;SDS011;10397;50.948;11.092;2024-03-23T12:50:56;0.45;;;0.13;;
20476;SDS011;10397;50.948;11.092;2024-03-23T12:53:27;0.55;;;0.47;;
20476;SDS011;10397;50.948;11.092;2024-03-23T12:55:59;0.03;;;0.03;;
20476;SDS011;10397;50.948;11.092;2024-03-23T12:58:31;0.30;;;0.10;;
20476;SDS011;10397;50.948;11.092;2024-03-23T13:01:02;2.52;;;0.47;;
20476;SDS011;10397;50.948;11.092;2024-03-23T13:03:33;1.03;;;0.70;;
20476;SDS011;10397;50.948;11.092;2024-03-23T13:06:04;0.62;;;0.30;;
20476;SDS011;10397;50.948;11.092;2024-03-23T13:08:34;0.93;;;0.60;;
20476;SDS011;10397;50.948;11.092;2024-03-23T13:11:05;0.10;;;0.03;;
20476;SDS011;10397;50.948;11.092;2024-03-23T13:13:37;0.00;;;0.00;;
20476;SDS011;10397;50.948;11.092;2024-03-23T13:16:07;4.33;;;0.37;;
20476;SDS011;10397;50.948;11.092;2024-03-23T13:18:38;0.15;;;0.15;;
20476;SDS011;10397;50.948;11.092;2024-03-23T13:21:10;0.30;;;0.30;;
20476;SDS011;10397;50.948;11.092;2024-03-23T13:23:42;0.75;;;0.40;;
20476;SDS011;10397;50.948;11.092;2024-03-23T13:26:13;0.00;;;0.00;;
20476;SDS011;10397;50.948;11.092;2024-03-23T13:28:44;1.00;;;0.10;;
20476;SDS011;10397;50.948;11.092;2024-03-23T13:31:16;0.00;;;0.00;;
20476;SDS011;10397;50.948;11.092;2024-03-23T13:33:47;0.00;;;0.00;;
20476;SDS011;10397;50.948;11.092;2024-03-23T13:36:18;0.00;;;0.00;;
20476;SDS011;10397;50.948;11.092;2024-03-23T13:38:49;1.02;;;0.10;;
20476;SDS011;10397;50.948;11.092;2024-03-23T13:41:21;0.10;;;0.10;;
20476;SDS011;10397;50.948;11.092;2024-03-23T13:43:52;0.10;;;0.00;;
20476;SDS011;10397;50.948;11.092;2024-03-23T13:46:24;1.25;;;0.53;;
20476;SDS011;10397;50.948;11.092;2024-03-23T13:48:55;0.50;;;0.30;;
20476;SDS011;10397;50.948;11.092;2024-03-23T13:51:27;0.30;;;0.00;;
20476;SDS011;10397;50.948;11.092;2024-03-23T13:53:58;0.15;;;0.13;;
20476;SDS011;10397;50.948;11.092;2024-03-23T13:56:30;0.30;;;0.10;;
20476;SDS011;10397;50.948;11.092;2024-03-23T13:59:01;0.00;;;0.00;;
20476;SDS011;10397;50.948;11.092;2024-03-23T14:01:31;0.10;;;0.10;;
20476;SDS011;10397;50.948;11.092;2024-03-23T14:04:03;0.13;;;0.10;;
20476;SDS011;10397;50.948;11.092;2024-03-23T14:06:34;0.20;;;0.10;;
20476;SDS011;10397;50.948;11.092;2024-03-23T14:09:06;0.20;;;0.20;;
20476;SDS011;10397;50.948;11.092;2024-03-23T14:11:37;0.20;;;0.10;;
20476;SDS011;10397;50.948;11.092;2024-03-23T14:14:07;0.28;;;0.10;;
20476;SDS011;10397;50.948;11.092;2024-03-23T14:16:39;0.10;;;0.00;;
20476;SDS011;10397;50.948;11.092;2024-03-23T14:19:10;0.08;;;0.05;;
20476;SDS011;10397;50.948;11.092;2024-03-23T14:21:41;1.17;;;0.17;;
20476;SDS011;10397;50.948;11.092;2024-03-23T14:24:13;1.40;;;0.10;;
20476;SDS011;10397;50.948;11.092;2024-03-23T14:26:45;0.82;;;0.20;;
20476;SDS011;10397;50.948;11.092;2024-03-23T14:29:16;0.30;;;0.05;;
20476;SDS011;10397;50.948;11.092;2024-03-23T14:31:47;0.67;;;0.57;;
20476;SDS011;10397;50.948;11.092;2024-03-23T14:34:18;0.40;;;0.10;;
20476;SDS011;10397;50.948;11.092;2024-03-23T14:36:49;0.20;;;0.20;;
20476;SDS011;10397;50.948;11.092;2024-03-23T14:39:24;0.82;;;0.37;;
20476;SDS011;10397;50.948;11.092;2024-03-23T14:41:55;0.00;;;0.00;;
20476;SDS011;10397;50.948;11.092;2024-03-23T14:44:27;0.00;;;0.00;;
20476;SDS011;10397;50.948;11.092;2024-03-23T14:46:57;0.23;;;0.10;;
20476;SDS011;10397;50.948;11.092;2024-03-23T14:49:29;0.25;;;0.10;;
20476;SDS011;10397;50.948;11.092;2024-03-23T14:52:00;0.10;;;0.10;;
20476;SDS011;10397;50.948;11.092;2024-03-23T14:54:32;0.10;;;0.00;;
20476;SDS011;10397;50.948;11.092;2024-03-23T14:57:03;0.08;;;0.00;;
20476;SDS011;10397;50.948;11.092;2024-03-23T14:59:35;0.10;;;0.08;;
20476;SDS011;10397;50.948;11.092;2024-03-23T15:02:12;0.10;;;0.00;;
20476;SDS011;10397;50.948;11.092;2024-03-23T15:04:43;2.47;;;0.10;;
20476;SDS011;10397;50.948;11.092;2024-03-23T15:07:15;0.20;;;0.10;;
20476;SDS011;10397;50.948;11.092;2024-03-23T15:09:46;0.10;;;0.00;;
20476;SDS011;10397;50.948;11.092;2024-03-23T15:12:18;0.10;;;0.00;;
20476;SDS011;10397;50.948;11.092;2024-03-23T15:14:48;0.20;;;0.17;;
20476;SDS011;10397;50.948;11.092;2024-03-23T15:17:19;0.03;;;0.00;;
20476;SDS011;10397;50.948;11.092;2024-03-23T15:19:51;0.10;;;0.10;;
20476;SDS011;10397;50.948;11.092;2024-03-23T15:22:22;0.03;;;0.03;;
20476;SDS011;10397;50.948;11.092;2024-03-23T15:24:54;0.30;;;0.13;;
20476;SDS011;10397;50.948;11.092;2024-03-23T15:27:25;0.10;;;0.00;;
20476;SDS011;10397;50.948;11.092;2024-03-23T15:29:57;1.05;;;0.20;;
20476;SDS011;10397;50.948;11.092;2024-03-23T15:32:29;2.77;;;0.80;;
20476;SDS011;10397;50.948;11.092;2024-03-23T15:35:00;0.10;;;0.00;;
20476;SDS011;10397;50.948;11.092;2024-03-23T15:37:31;0.00;;;0.00;;
20476;SDS011;10397;50.948;11.092;2024-03-23T15:40:03;0.35;;;0.35;;
20476;SDS011;10397;50.948;11.092;2024-03-23T15:42:33;0.00;;;0.00;;
20476;SDS011;10397;50.948;11.092;2024-03-23T15:45:08;0.00;;;0.00;;
20476;SDS011;10397;50.948;11.092;2024-03-23T15:47:38;1.13;;;0.30;;
20476;SDS011;10397;50.948;11.092;2024-03-23T15:50:10;0.00;;;0.00;;
20476;SDS011;10397;50.948;11.092;2024-03-23T15:52:41;0.00;;;0.00;;
20476;SDS011;10397;50.948;11.092;2024-03-23T15:55:13;0.13;;;0.10;;